sensor_id;sensor_type;location;lat;lon;timestamp;temperature;humidity
8611;DHT22;4343;53.648;10.098;2024-01-16T00:01:26;-0.30;99.90
8611;DHT22;4343;53.648;10.098;2024-01-16T00:03:52;-0.20;99.90
8611;DHT22;4343;53.648;10.098;2024-01-16T00:06:17;-0.30;99.90
8611;DHT22;4343;53.648;10.098;2024-01-16T00:08:43;-0.30;99.90
8611;DHT22;4343;53.648;10.098;2024-01-16T00:11:08;-0.30;99.90
8611;DHT22;4343;53.648;10.098;2024-01-16T00:13:35;-0.30;99.90
8611;DHT22;4343;53.648;10.098;2024-01-16T00:16:02;-0.30;99.90
8611;DHT22;4343;53.648;10.098;2024-01-16T00:18:29;-0.30;99.90
8611;DHT22;4343;53.648;10.098;2024-01-16T00:20:55;-0.30;99.90
8611;DHT22;4343;53.648;10.098;2024-01-16T00:23:20;-0.30;99.90
8611;DHT22;4343;53.648;10.098;2024-01-16T00:25:46;-0.40;99.90
8611;DHT22;4343;53.648;10.098;2024-01-16T00:28:11;-0.30;99.90
8611;DHT22;4343;53.648;10.098;2024-01-16T00:30:37;-0.30;99.90
8611;DHT22;4343;53.648;10.098;2024-01-16T00:33:02;-0.40;99.90
8611;DHT22;4343;53.648;10.098;2024-01-16T00:35:28;-0.40;99.90
8611;DHT22;4343;53.648;10.098;2024-01-16T00:37:53;-0.40;99.90
8611;DHT22;4343;53.648;10.098;2024-01-16T00:40:19;-0.40;99.90
8611;DHT22;4343;53.648;10.098;2024-01-16T00:42:44;-0.40;99.90
8611;DHT22;4343;53.648;10.098;2024-01-16T00:45:10;-0.40;99.90
8611;DHT22;4343;53.648;10.098;2024-01-16T00:47:35;-0.40;99.90
8611;DHT22;4343;53.648;10.098;2024-01-16T00:50:01;-0.40;99.90
8611;DHT22;4343;53.648;10.098;2024-01-16T00:52:27;-0.40;99.90
8611;DHT22;4343;53.648;10.098;2024-01-16T00:54:53;-0.40;99.90
8611;DHT22;4343;53.648;10.098;2024-01-16T00:57:18;-0.40;99.90
8611;DHT22;4343;53.648;10.098;2024-01-16T00:59:48;-0.40;99.90
8611;DHT22;4343;53.648;10.098;2024-01-16T01:02:14;-0.40;99.90
8611;DHT22;4343;53.648;10.098;2024-01-16T01:04:40;-0.40;99.90
8611;DHT22;4343;53.648;10.098;2024-01-16T01:07:07;-0.40;99.90
8611;DHT22;4343;53.648;10.098;2024-01-16T01:09:33;-0.40;99.90
8611;DHT22;4343;53.648;10.098;2024-01-16T01:11:59;-0.40;99.90
8611;DHT22;4343;53.648;10.098;2024-01-16T01:14:25;-0.50;99.90
8611;DHT22;4343;53.648;10.098;2024-01-16T01:16:52;-0.40;99.90
8611;DHT22;4343;53.648;10.098;2024-01-16T01:19:18;-0.50;99.90
8611;DHT22;4343;53.648;10.098;2024-01-16T01:21:43;-0.50;99.90
8611;DHT22;4343;53.648;10.098;2024-01-16T01:24:09;-0.50;99.90
8611;DHT22;4343;53.648;10.098;2024-01-16T01:26:34;-0.50;99.90
8611;DHT22;4343;53.648;10.098;2024-01-16T01:29:00;-0.50;99.90
8611;DHT22;4343;53.648;10.098;2024-01-16T01:31:25;-0.50;99.90
8611;DHT22;4343;53.648;10.098;2024-01-16T01:33:51;-0.50;99.90
8611;DHT22;4343;53.648;10.098;2024-01-16T01:36:16;-0.50;99.90
8611;DHT22;4343;53.648;10.098;2024-01-16T01:38:42;-0.50;99.90
8611;DHT22;4343;53.648;10.098;2024-01-16T01:41:07;-0.50;99.90
8611;DHT22;4343;53.648;10.098;2024-01-16T01:43:33;-0.50;99.90
8611;DHT22;4343;53.648;10.098;2024-01-16T01:46:08;-0.50;99.90
8611;DHT22;4343;53.648;10.098;2024-01-16T01:48:40;-0.50;99.90
8611;DHT22;4343;53.648;10.098;2024-01-16T01:51:05;-0.50;99.90
8611;DHT22;4343;53.648;10.098;2024-01-16T01:53:32;-0.50;99.90
8611;DHT22;4343;53.648;10.098;2024-01-16T01:56:00;-0.50;99.90
8611;DHT22;4343;53.648;10.098;2024-01-16T01:58:28;-0.50;99.90
8611;DHT22;4343;53.648;10.098;2024-01-16T02:00:54;-0.60;99.90
8611;DHT22;4343;53.648;10.098;2024-01-16T02:03:20;-0.60;99.90
8611;DHT22;4343;53.648;10.098;2024-01-16T02:05:46;-0.60;99.90
8611;DHT22;4343;53.648;10.098;2024-01-16T02:08:12;-0.60;99.90
8611;DHT22;4343;53.648;10.098;2024-01-16T02:10:39;-0.60;99.90
8611;DHT22;4343;53.648;10.098;2024-01-16T02:13:07;-0.60;99.90
8611;DHT22;4343;53.648;10.098;2024-01-16T02:15:33;-0.60;99.90
8611;DHT22;4343;53.648;10.098;2024-01-16T02:17:58;-0.60;99.90
8611;DHT22;4343;53.648;10.098;2024-01-16T02:20:24;-0.60;99.90
8611;DHT22;4343;53.648;10.098;2024-01-16T02:22:52;-0.60;99.90
8611;DHT22;4343;53.648;10.098;2024-01-16T02:25:20;-0.60;99.90
8611;DHT22;4343;53.648;10.098;2024-01-16T02:27:47;-0.60;99.90
8611;DHT22;4343;53.648;10.098;2024-01-16T02:30:12;-0.60;99.90
8611;DHT22;4343;53.648;10.098;2024-01-16T02:32:38;-0.60;99.90
8611;DHT22;4343;53.648;10.098;2024-01-16T02:35:04;-0.60;99.90
8611;DHT22;4343;53.648;10.098;2024-01-16T02:37:30;-0.60;99.90
8611;DHT22;4343;53.648;10.098;2024-01-16T02:39:56;-0.70;99.90
8611;DHT22;4343;53.648;10.098;2024-01-16T02:42:21;-0.70;99.90
8611;DHT22;4343;53.648;10.098;2024-01-16T02:44:47;-0.70;99.90
8611;DHT22;4343;53.648;10.098;2024-01-16T02:47:12;-0.70;99.90
8611;DHT22;4343;53.648;10.098;2024-01-16T02:49:38;-0.70;99.90
8611;DHT22;4343;53.648;10.098;2024-01-16T02:52:05;-0.70;99.90
8611;DHT22;4343;53.648;10.098;2024-01-16T02:54:30;-0.70;99.90
8611;DHT22;4343;53.648;10.098;2024-01-16T02:56:56;-0.70;99.90
8611;DHT22;4343;53.648;10.098;2024-01-16T02:59:21;-0.70;99.90
8611;DHT22;4343;53.648;10.098;2024-01-16T03:01:47;-0.70;99.90
8611;DHT22;4343;53.648;10.098;2024-01-16T03:04:13;-0.70;99.90
8611;DHT22;4343;53.648;10.098;2024-01-16T03:06:38;-0.80;99.90
8611;DHT22;4343;53.648;10.098;2024-01-16T03:09:04;-0.80;99.90
8611;DHT22;4343;53.648;10.098;2024-01-16T03:11:29;-0.80;99.90
8611;DHT22;4343;53.648;10.098;2024-01-16T03:13:57;-0.80;99.90
8611;DHT22;4343;53.648;10.098;2024-01-16T03:16:22;-0.80;99.90
8611;DHT22;4343;53.648;10.098;2024-01-16T03:18:48;-0.90;99.90
8611;DHT22;4343;53.648;10.098;2024-01-16T03:21:13;-0.80;99.90
8611;DHT22;4343;53.648;10.098;2024-01-16T03:23:39;-0.80;99.90
8611;DHT22;4343;53.648;10.098;2024-01-16T03:26:05;-0.80;99.90
8611;DHT22;4343;53.648;10.098;2024-01-16T03:28:30;-0.90;99.90
8611;DHT22;4343;53.648;10.098;2024-01-16T03:30:56;-0.90;99.90
8611;DHT22;4343;53.648;10.098;2024-01-16T03:33:21;-0.90;99.90
8611;DHT22;4343;53.648;10.098;2024-01-16T03:35:46;-0.90;99.90
8611;DHT22;4343;53.648;10.098;2024-01-16T03:38:12;-0.90;99.90
8611;DHT22;4343;53.648;10.098;2024-01-16T03:40:38;-0.90;99.90
8611;DHT22;4343;53.648;10.098;2024-01-16T03:43:03;-0.90;99.90
8611;DHT22;4343;53.648;10.098;2024-01-16T03:45:30;-0.90;99.90
8611;DHT22;4343;53.648;10.098;2024-01-16T03:47:56;-0.90;99.90
8611;DHT22;4343;53.648;10.098;2024-01-16T03:50:21;-0.90;99.90
8611;DHT22;4343;53.648;10.098;2024-01-16T03:52:47;-0.90;99.90
8611;DHT22;4343;53.648;10.098;2024-01-16T03:55:12;-0.90;99.90
8611;DHT22;4343;53.648;10.098;2024-01-16T03:57:37;-0.90;99.90
8611;DHT22;4343;53.648;10.098;2024-01-16T04:00:03;-0.90;99.90
8611;DHT22;4343;53.648;10.098;2024-01-16T04:02:30;-0.90;99.90
8611;DHT22;4343;53.648;10.098;2024-01-16T04:04:56;-0.90;99.90
8611;DHT22;4343;53.648;10.098;2024-01-16T04:07:24;-0.90;99.90
8611;DHT22;4343;53.648;10.098;2024-01-16T04:09:51;-0.90;99.90
8611;DHT22;4343;53.648;10.098;2024-01-16T04:12:17;-0.90;99.90
8611;DHT22;4343;53.648;10.098;2024-01-16T04:14:42;-0.90;99.90
8611;DHT22;4343;53.648;10.098;2024-01-16T04:17:08;-0.90;99.90
8611;DHT22;4343;53.648;10.098;2024-01-16T04:19:33;-0.90;99.90
8611;DHT22;4343;53.648;10.098;2024-01-16T04:21:59;-0.90;99.90
8611;DHT22;4343;53.648;10.098;2024-01-16T04:24:25;-0.90;99.90
8611;DHT22;4343;53.648;10.098;2024-01-16T04:26:50;-0.90;99.90
8611;DHT22;4343;53.648;10.098;2024-01-16T04:29:16;-1.00;99.90
8611;DHT22;4343;53.648;10.098;2024-01-16T04:31:41;-1.00;99.90
8611;DHT22;4343;53.648;10.098;2024-01-16T04:34:07;-1.00;99.90
8611;DHT22;4343;53.648;10.098;2024-01-16T04:36:32;-1.00;99.90
8611;DHT22;4343;53.648;10.098;2024-01-16T04:38:58;-1.10;99.90
8611;DHT22;4343;53.648;10.098;2024-01-16T04:41:23;-1.10;99.90
8611;DHT22;4343;53.648;10.098;2024-01-16T04:43:49;-1.10;99.90
8611;DHT22;4343;53.648;10.098;2024-01-16T04:46:15;-1.10;99.90
8611;DHT22;4343;53.648;10.098;2024-01-16T04:48:41;-1.10;99.90
8611;DHT22;4343;53.648;10.098;2024-01-16T04:51:06;-1.00;99.90
8611;DHT22;4343;53.648;10.098;2024-01-16T04:53:33;-1.00;99.90
8611;DHT22;4343;53.648;10.098;2024-01-16T04:55:58;-1.00;99.90
8611;DHT22;4343;53.648;10.098;2024-01-16T04:58:24;-1.00;99.90
8611;DHT22;4343;53.648;10.098;2024-01-16T05:00:49;-1.00;99.90
8611;DHT22;4343;53.648;10.098;2024-01-16T05:03:15;-1.00;99.90
8611;DHT22;4343;53.648;10.098;2024-01-16T05:05:40;-1.00;99.90
8611;DHT22;4343;53.648;10.098;2024-01-16T05:08:06;-1.00;99.90
8611;DHT22;4343;53.648;10.098;2024-01-16T05:10:31;-1.00;99.90
8611;DHT22;4343;53.648;10.098;2024-01-16T05:12:57;-1.00;99.90
8611;DHT22;4343;53.648;10.098;2024-01-16T05:15:22;-1.00;99.90
8611;DHT22;4343;53.648;10.098;2024-01-16T05:17:48;-1.00;99.90
8611;DHT22;4343;53.648;10.098;2024-01-16T05:20:13;-1.00;99.90
8611;DHT22;4343;53.648;10.098;2024-01-16T05:22:39;-1.00;99.90
8611;DHT22;4343;53.648;10.098;2024-01-16T05:25:04;-1.00;99.90
8611;DHT22;4343;53.648;10.098;2024-01-16T05:27:32;-1.00;99.90
8611;DHT22;4343;53.648;10.098;2024-01-16T05:29:58;-0.90;99.90
8611;DHT22;4343;53.648;10.098;2024-01-16T05:32:23;-1.00;99.90
8611;DHT22;4343;53.648;10.098;2024-01-16T05:34:48;-1.00;99.90
8611;DHT22;4343;53.648;10.098;2024-01-16T05:37:14;-1.00;99.90
8611;DHT22;4343;53.648;10.098;2024-01-16T05:39:39;-1.00;99.90
8611;DHT22;4343;53.648;10.098;2024-01-16T05:42:05;-0.90;99.90
8611;DHT22;4343;53.648;10.098;2024-01-16T05:44:30;-1.00;99.90
8611;DHT22;4343;53.648;10.098;2024-01-16T05:46:56;-1.00;99.90
8611;DHT22;4343;53.648;10.098;2024-01-16T05:49:21;-1.00;99.90
8611;DHT22;4343;53.648;10.098;2024-01-16T05:51:47;-0.90;99.90
8611;DHT22;4343;53.648;10.098;2024-01-16T05:54:12;-0.90;99.90
8611;DHT22;4343;53.648;10.098;2024-01-16T05:56:37;-0.90;99.90
8611;DHT22;4343;53.648;10.098;2024-01-16T05:59:03;-0.90;99.90
8611;DHT22;4343;53.648;10.098;2024-01-16T06:01:29;-0.90;99.90
8611;DHT22;4343;53.648;10.098;2024-01-16T06:03:54;-0.90;99.90
8611;DHT22;4343;53.648;10.098;2024-01-16T06:06:20;-0.90;99.90
8611;DHT22;4343;53.648;10.098;2024-01-16T06:08:45;-0.80;99.90
8611;DHT22;4343;53.648;10.098;2024-01-16T06:11:11;-0.80;99.90
8611;DHT22;4343;53.648;10.098;2024-01-16T06:13:36;-0.80;99.90
8611;DHT22;4343;53.648;10.098;2024-01-16T06:16:02;-0.80;99.90
8611;DHT22;4343;53.648;10.098;2024-01-16T06:18:28;-0.80;99.90
8611;DHT22;4343;53.648;10.098;2024-01-16T06:20:53;-0.80;99.90
8611;DHT22;4343;53.648;10.098;2024-01-16T06:23:19;-0.80;99.90
8611;DHT22;4343;53.648;10.098;2024-01-16T06:25:44;-0.80;99.90
8611;DHT22;4343;53.648;10.098;2024-01-16T06:28:10;-0.80;99.90
8611;DHT22;4343;53.648;10.098;2024-01-16T06:30:35;-0.70;99.90
8611;DHT22;4343;53.648;10.098;2024-01-16T06:33:00;-0.80;99.90
8611;DHT22;4343;53.648;10.098;2024-01-16T06:35:26;-0.70;99.90
8611;DHT22;4343;53.648;10.098;2024-01-16T06:37:51;-0.70;99.90
8611;DHT22;4343;53.648;10.098;2024-01-16T06:40:17;-0.70;99.90
8611;DHT22;4343;53.648;10.098;2024-01-16T06:42:43;-0.70;99.90
8611;DHT22;4343;53.648;10.098;2024-01-16T06:45:09;-0.70;99.90
8611;DHT22;4343;53.648;10.098;2024-01-16T06:47:34;-0.70;99.90
8611;DHT22;4343;53.648;10.098;2024-01-16T06:50:00;-0.70;99.90
8611;DHT22;4343;53.648;10.098;2024-01-16T06:52:25;-0.70;99.90
8611;DHT22;4343;53.648;10.098;2024-01-16T06:54:50;-0.60;99.90
8611;DHT22;4343;53.648;10.098;2024-01-16T06:57:16;-0.60;99.90
8611;DHT22;4343;53.648;10.098;2024-01-16T06:59:41;-0.60;99.90
8611;DHT22;4343;53.648;10.098;2024-01-16T07:02:07;-0.60;99.90
8611;DHT22;4343;53.648;10.098;2024-01-16T07:04:33;-0.60;99.90
8611;DHT22;4343;53.648;10.098;2024-01-16T07:06:59;-0.60;99.90
8611;DHT22;4343;53.648;10.098;2024-01-16T07:09:25;-0.60;99.90
8611;DHT22;4343;53.648;10.098;2024-01-16T07:11:50;-0.60;99.90
8611;DHT22;4343;53.648;10.098;2024-01-16T07:14:16;-0.60;99.90
8611;DHT22;4343;53.648;10.098;2024-01-16T07:16:41;-0.60;99.90
8611;DHT22;4343;53.648;10.098;2024-01-16T07:19:08;-0.50;99.90
8611;DHT22;4343;53.648;10.098;2024-01-16T07:21:33;-0.50;99.90
8611;DHT22;4343;53.648;10.098;2024-01-16T07:23:59;-0.50;99.90
8611;DHT22;4343;53.648;10.098;2024-01-16T07:26:24;-0.50;99.90
8611;DHT22;4343;53.648;10.098;2024-01-16T07:28:50;-0.50;99.90
8611;DHT22;4343;53.648;10.098;2024-01-16T07:31:15;-0.50;99.90
8611;DHT22;4343;53.648;10.098;2024-01-16T07:33:42;-0.50;99.90
8611;DHT22;4343;53.648;10.098;2024-01-16T07:36:08;-0.50;99.90
8611;DHT22;4343;53.648;10.098;2024-01-16T07:38:34;-0.50;99.90
8611;DHT22;4343;53.648;10.098;2024-01-16T07:40:59;-0.50;99.90
8611;DHT22;4343;53.648;10.098;2024-01-16T07:43:25;-0.50;99.90
8611;DHT22;4343;53.648;10.098;2024-01-16T07:45:50;-0.50;99.90
8611;DHT22;4343;53.648;10.098;2024-01-16T07:48:16;-0.40;99.90
8611;DHT22;4343;53.648;10.098;2024-01-16T07:50:41;-0.40;99.90
8611;DHT22;4343;53.648;10.098;2024-01-16T07:53:07;-0.40;99.90
8611;DHT22;4343;53.648;10.098;2024-01-16T07:55:32;-0.40;99.90
8611;DHT22;4343;53.648;10.098;2024-01-16T07:57:57;-0.40;99.90
8611;DHT22;4343;53.648;10.098;2024-01-16T08:00:23;-0.40;99.90
8611;DHT22;4343;53.648;10.098;2024-01-16T08:02:48;-0.40;99.90
8611;DHT22;4343;53.648;10.098;2024-01-16T08:05:14;-0.40;99.90
8611;DHT22;4343;53.648;10.098;2024-01-16T08:07:42;-0.40;99.90
8611;DHT22;4343;53.648;10.098;2024-01-16T08:10:08;-0.40;99.90
8611;DHT22;4343;53.648;10.098;2024-01-16T08:12:33;-0.40;99.90
8611;DHT22;4343;53.648;10.098;2024-01-16T08:14:59;-0.40;99.90
8611;DHT22;4343;53.648;10.098;2024-01-16T08:17:24;-0.30;99.90
8611;DHT22;4343;53.648;10.098;2024-01-16T08:19:50;-0.40;99.90
8611;DHT22;4343;53.648;10.098;2024-01-16T08:22:15;-0.40;99.90
8611;DHT22;4343;53.648;10.098;2024-01-16T08:24:41;-0.30;99.90
8611;DHT22;4343;53.648;10.098;2024-01-16T08:27:06;-0.30;99.90
8611;DHT22;4343;53.648;10.098;2024-01-16T08:29:32;-0.30;99.90
8611;DHT22;4343;53.648;10.098;2024-01-16T08:31:57;-0.30;99.90
8611;DHT22;4343;53.648;10.098;2024-01-16T08:34:22;-0.30;99.90
8611;DHT22;4343;53.648;10.098;2024-01-16T08:36:48;-0.30;99.90
8611;DHT22;4343;53.648;10.098;2024-01-16T08:39:13;-0.30;99.90
8611;DHT22;4343;53.648;10.098;2024-01-16T08:41:39;-0.20;99.90
8611;DHT22;4343;53.648;10.098;2024-01-16T08:44:04;-0.30;99.90
8611;DHT22;4343;53.648;10.098;2024-01-16T08:46:30;-0.20;99.90
8611;DHT22;4343;53.648;10.098;2024-01-16T08:48:55;-0.20;99.90
8611;DHT22;4343;53.648;10.098;2024-01-16T08:51:21;-0.20;99.90
8611;DHT22;4343;53.648;10.098;2024-01-16T08:53:46;-0.20;99.90
8611;DHT22;4343;53.648;10.098;2024-01-16T08:56:11;-0.20;99.90
8611;DHT22;4343;53.648;10.098;2024-01-16T08:58:41;-0.20;99.90
8611;DHT22;4343;53.648;10.098;2024-01-16T09:01:07;-0.20;99.90
8611;DHT22;4343;53.648;10.098;2024-01-16T09:03:33;-0.10;99.90
8611;DHT22;4343;53.648;10.098;2024-01-16T09:05:59;-0.10;99.90
8611;DHT22;4343;53.648;10.098;2024-01-16T09:08:25;-0.10;99.90
8611;DHT22;4343;53.648;10.098;2024-01-16T09:10:51;-0.10;99.90
8611;DHT22;4343;53.648;10.098;2024-01-16T09:13:17;-0.10;99.90
8611;DHT22;4343;53.648;10.098;2024-01-16T09:15:42;-0.10;99.90
8611;DHT22;4343;53.648;10.098;2024-01-16T09:18:08;-0.10;99.90
8611;DHT22;4343;53.648;10.098;2024-01-16T09:20:33;-0.10;99.90
8611;DHT22;4343;53.648;10.098;2024-01-16T09:22:59;-0.10;99.90
8611;DHT22;4343;53.648;10.098;2024-01-16T09:25:25;-0.10;99.90
8611;DHT22;4343;53.648;10.098;2024-01-16T09:27:52;0.00;99.90
8611;DHT22;4343;53.648;10.098;2024-01-16T09:30:18;-0.10;99.90
8611;DHT22;4343;53.648;10.098;2024-01-16T09:32:44;0.00;99.90
8611;DHT22;4343;53.648;10.098;2024-01-16T09:35:10;0.00;99.90
8611;DHT22;4343;53.648;10.098;2024-01-16T09:37:36;0.00;99.90
8611;DHT22;4343;53.648;10.098;2024-01-16T09:40:01;0.00;99.90
8611;DHT22;4343;53.648;10.098;2024-01-16T09:42:27;0.00;99.90
8611;DHT22;4343;53.648;10.098;2024-01-16T09:44:52;0.00;99.90
8611;DHT22;4343;53.648;10.098;2024-01-16T09:47:19;0.00;99.90
8611;DHT22;4343;53.648;10.098;2024-01-16T09:49:46;0.00;99.90
8611;DHT22;4343;53.648;10.098;2024-01-16T09:52:11;0.00;99.90
8611;DHT22;4343;53.648;10.098;2024-01-16T09:54:37;0.00;99.90
8611;DHT22;4343;53.648;10.098;2024-01-16T09:57:02;0.00;99.90
8611;DHT22;4343;53.648;10.098;2024-01-16T09:59:31;0.00;99.90
8611;DHT22;4343;53.648;10.098;2024-01-16T10:01:57;0.00;99.90
8611;DHT22;4343;53.648;10.098;2024-01-16T10:04:26;0.10;99.90
8611;DHT22;4343;53.648;10.098;2024-01-16T10:06:53;0.10;99.90
8611;DHT22;4343;53.648;10.098;2024-01-16T10:09:18;0.10;99.90
8611;DHT22;4343;53.648;10.098;2024-01-16T10:11:44;0.10;99.90
8611;DHT22;4343;53.648;10.098;2024-01-16T10:14:10;0.10;99.90
8611;DHT22;4343;53.648;10.098;2024-01-16T10:19:19;0.20;99.90
8611;DHT22;4343;53.648;10.098;2024-01-16T10:21:45;0.20;99.90
8611;DHT22;4343;53.648;10.098;2024-01-16T10:24:11;0.20;99.90
8611;DHT22;4343;53.648;10.098;2024-01-16T10:26:37;0.20;99.90
8611;DHT22;4343;53.648;10.098;2024-01-16T10:29:03;0.20;99.90
8611;DHT22;4343;53.648;10.098;2024-01-16T10:31:29;0.20;99.90
8611;DHT22;4343;53.648;10.098;2024-01-16T10:33:55;0.20;99.90
8611;DHT22;4343;53.648;10.098;2024-01-16T10:36:23;0.20;99.90
8611;DHT22;4343;53.648;10.098;2024-01-16T10:38:48;0.20;99.90
8611;DHT22;4343;53.648;10.098;2024-01-16T10:41:19;0.30;99.90
8611;DHT22;4343;53.648;10.098;2024-01-16T10:43:55;0.30;99.90
8611;DHT22;4343;53.648;10.098;2024-01-16T10:46:28;0.30;99.90
8611;DHT22;4343;53.648;10.098;2024-01-16T10:49:01;0.30;99.90
8611;DHT22;4343;53.648;10.098;2024-01-16T10:51:27;0.30;99.90
8611;DHT22;4343;53.648;10.098;2024-01-16T10:53:59;0.30;99.90
8611;DHT22;4343;53.648;10.098;2024-01-16T10:56:26;0.30;99.90
8611;DHT22;4343;53.648;10.098;2024-01-16T10:58:57;0.30;99.90
8611;DHT22;4343;53.648;10.098;2024-01-16T11:01:24;0.30;99.90
8611;DHT22;4343;53.648;10.098;2024-01-16T11:03:50;0.30;99.90
8611;DHT22;4343;53.648;10.098;2024-01-16T11:06:19;0.30;99.90
8611;DHT22;4343;53.648;10.098;2024-01-16T11:08:47;0.40;99.90
8611;DHT22;4343;53.648;10.098;2024-01-16T11:11:13;0.30;99.90
8611;DHT22;4343;53.648;10.098;2024-01-16T11:13:39;0.40;99.90
8611;DHT22;4343;53.648;10.098;2024-01-16T11:16:06;0.40;99.90
8611;DHT22;4343;53.648;10.098;2024-01-16T11:18:33;0.40;99.90
8611;DHT22;4343;53.648;10.098;2024-01-16T11:21:00;0.40;99.90
8611;DHT22;4343;53.648;10.098;2024-01-16T11:23:26;0.40;99.90
8611;DHT22;4343;53.648;10.098;2024-01-16T11:25:52;0.50;99.90
8611;DHT22;4343;53.648;10.098;2024-01-16T11:28:17;0.40;99.90
8611;DHT22;4343;53.648;10.098;2024-01-16T11:30:45;0.50;99.90
8611;DHT22;4343;53.648;10.098;2024-01-16T11:36:41;0.50;99.90
8611;DHT22;4343;53.648;10.098;2024-01-16T11:38:57;0.50;99.90
8611;DHT22;4343;53.648;10.098;2024-01-16T11:41:47;0.50;99.90
8611;DHT22;4343;53.648;10.098;2024-01-16T11:44:35;0.60;99.90
8611;DHT22;4343;53.648;10.098;2024-01-16T11:47:01;0.50;99.90
8611;DHT22;4343;53.648;10.098;2024-01-16T11:49:30;0.60;99.90
8611;DHT22;4343;53.648;10.098;2024-01-16T11:51:57;0.60;99.90
8611;DHT22;4343;53.648;10.098;2024-01-16T11:54:22;0.60;99.90
8611;DHT22;4343;53.648;10.098;2024-01-16T12:02:02;0.60;99.90
8611;DHT22;4343;53.648;10.098;2024-01-16T12:04:30;0.70;99.90
8611;DHT22;4343;53.648;10.098;2024-01-16T12:06:56;0.70;99.90
8611;DHT22;4343;53.648;10.098;2024-01-16T12:09:24;0.70;99.90
8611;DHT22;4343;53.648;10.098;2024-01-16T12:12:00;0.70;99.90
8611;DHT22;4343;53.648;10.098;2024-01-16T12:14:28;0.70;99.90
8611;DHT22;4343;53.648;10.098;2024-01-16T12:19:35;0.70;99.90
8611;DHT22;4343;53.648;10.098;2024-01-16T12:22:01;0.70;99.90
8611;DHT22;4343;53.648;10.098;2024-01-16T12:24:26;0.80;99.90
8611;DHT22;4343;53.648;10.098;2024-01-16T12:26:52;0.70;99.90
8611;DHT22;4343;53.648;10.098;2024-01-16T12:29:18;0.80;99.90
8611;DHT22;4343;53.648;10.098;2024-01-16T12:31:43;0.70;99.90
8611;DHT22;4343;53.648;10.098;2024-01-16T12:34:09;0.80;99.90
8611;DHT22;4343;53.648;10.098;2024-01-16T12:36:34;0.80;99.90
8611;DHT22;4343;53.648;10.098;2024-01-16T12:39:00;0.80;99.90
8611;DHT22;4343;53.648;10.098;2024-01-16T12:41:27;0.80;99.90
8611;DHT22;4343;53.648;10.098;2024-01-16T12:43:53;0.80;99.90
8611;DHT22;4343;53.648;10.098;2024-01-16T12:46:19;0.80;99.90
8611;DHT22;4343;53.648;10.098;2024-01-16T12:48:45;0.80;99.90
8611;DHT22;4343;53.648;10.098;2024-01-16T12:51:12;0.80;99.90
8611;DHT22;4343;53.648;10.098;2024-01-16T12:53:45;0.90;99.90
8611;DHT22;4343;53.648;10.098;2024-01-16T12:56:10;0.90;99.90
8611;DHT22;4343;53.648;10.098;2024-01-16T12:58:37;0.90;99.90
8611;DHT22;4343;53.648;10.098;2024-01-16T13:01:25;0.90;99.90
8611;DHT22;4343;53.648;10.098;2024-01-16T13:03:51;0.90;99.90
8611;DHT22;4343;53.648;10.098;2024-01-16T13:06:20;0.90;99.90
8611;DHT22;4343;53.648;10.098;2024-01-16T13:08:46;0.90;99.90
8611;DHT22;4343;53.648;10.098;2024-01-16T13:11:12;1.00;99.90
8611;DHT22;4343;53.648;10.098;2024-01-16T13:13:40;0.90;99.90
8611;DHT22;4343;53.648;10.098;2024-01-16T13:16:06;0.90;99.90
8611;DHT22;4343;53.648;10.098;2024-01-16T13:18:32;0.90;99.90
8611;DHT22;4343;53.648;10.098;2024-01-16T13:20:58;0.90;99.90
8611;DHT22;4343;53.648;10.098;2024-01-16T13:23:24;0.90;99.90
8611;DHT22;4343;53.648;10.098;2024-01-16T13:25:50;0.90;99.90
8611;DHT22;4343;53.648;10.098;2024-01-16T13:28:16;0.90;99.90
8611;DHT22;4343;53.648;10.098;2024-01-16T13:30:42;0.90;99.90
8611;DHT22;4343;53.648;10.098;2024-01-16T13:33:08;0.90;99.90
8611;DHT22;4343;53.648;10.098;2024-01-16T13:35:34;0.90;99.90
8611;DHT22;4343;53.648;10.098;2024-01-16T13:38:00;0.90;99.90
8611;DHT22;4343;53.648;10.098;2024-01-16T13:40:25;0.90;99.90
8611;DHT22;4343;53.648;10.098;2024-01-16T13:42:51;0.90;99.90
8611;DHT22;4343;53.648;10.098;2024-01-16T13:45:16;0.90;99.90
8611;DHT22;4343;53.648;10.098;2024-01-16T13:47:43;0.90;99.90
8611;DHT22;4343;53.648;10.098;2024-01-16T13:50:09;0.90;99.90
8611;DHT22;4343;53.648;10.098;2024-01-16T13:52:37;0.90;99.90
8611;DHT22;4343;53.648;10.098;2024-01-16T13:55:05;0.90;99.90
8611;DHT22;4343;53.648;10.098;2024-01-16T13:57:31;0.90;99.90
8611;DHT22;4343;53.648;10.098;2024-01-16T13:59:57;0.90;99.90
8611;DHT22;4343;53.648;10.098;2024-01-16T14:02:22;0.90;99.90
8611;DHT22;4343;53.648;10.098;2024-01-16T14:04:48;0.90;99.90
8611;DHT22;4343;53.648;10.098;2024-01-16T14:07:13;0.90;99.90
8611;DHT22;4343;53.648;10.098;2024-01-16T14:09:39;0.90;99.90
8611;DHT22;4343;53.648;10.098;2024-01-16T14:12:06;0.90;99.90
8611;DHT22;4343;53.648;10.098;2024-01-16T14:14:33;0.90;99.90
8611;DHT22;4343;53.648;10.098;2024-01-16T14:16:59;0.80;99.90
8611;DHT22;4343;53.648;10.098;2024-01-16T14:19:24;0.80;99.90
8611;DHT22;4343;53.648;10.098;2024-01-16T14:21:52;0.90;99.90
8611;DHT22;4343;53.648;10.098;2024-01-16T14:24:17;0.90;99.90
8611;DHT22;4343;53.648;10.098;2024-01-16T14:26:42;0.80;99.90
8611;DHT22;4343;53.648;10.098;2024-01-16T14:29:09;0.80;99.90
8611;DHT22;4343;53.648;10.098;2024-01-16T14:31:35;0.80;99.90
8611;DHT22;4343;53.648;10.098;2024-01-16T14:34:00;0.80;99.90
8611;DHT22;4343;53.648;10.098;2024-01-16T14:36:26;0.80;99.90
8611;DHT22;4343;53.648;10.098;2024-01-16T14:38:51;0.80;99.90
8611;DHT22;4343;53.648;10.098;2024-01-16T14:41:17;0.80;99.90
8611;DHT22;4343;53.648;10.098;2024-01-16T14:43:42;0.80;99.90
8611;DHT22;4343;53.648;10.098;2024-01-16T14:46:08;0.80;99.90
8611;DHT22;4343;53.648;10.098;2024-01-16T14:48:45;0.80;99.90
8611;DHT22;4343;53.648;10.098;2024-01-16T14:51:13;0.80;99.90
8611;DHT22;4343;53.648;10.098;2024-01-16T14:53:39;0.80;99.90
8611;DHT22;4343;53.648;10.098;2024-01-16T14:56:04;0.80;99.90
8611;DHT22;4343;53.648;10.098;2024-01-16T14:58:30;0.80;99.90
8611;DHT22;4343;53.648;10.098;2024-01-16T15:00:56;0.80;99.90
8611;DHT22;4343;53.648;10.098;2024-01-16T15:03:22;0.80;99.90
8611;DHT22;4343;53.648;10.098;2024-01-16T15:05:47;0.80;99.90
8611;DHT22;4343;53.648;10.098;2024-01-16T15:08:13;0.80;99.90
8611;DHT22;4343;53.648;10.098;2024-01-16T15:10:39;0.80;99.90
8611;DHT22;4343;53.648;10.098;2024-01-16T15:13:05;0.80;99.90
8611;DHT22;4343;53.648;10.098;2024-01-16T15:15:30;0.80;99.90
8611;DHT22;4343;53.648;10.098;2024-01-16T15:17:56;0.80;99.90
8611;DHT22;4343;53.648;10.098;2024-01-16T15:20:21;0.80;99.90
8611;DHT22;4343;53.648;10.098;2024-01-16T15:22:47;0.80;99.90
8611;DHT22;4343;53.648;10.098;2024-01-16T15:25:17;0.80;99.90
8611;DHT22;4343;53.648;10.098;2024-01-16T15:27:46;0.80;99.90
8611;DHT22;4343;53.648;10.098;2024-01-16T15:30:13;0.80;99.90
8611;DHT22;4343;53.648;10.098;2024-01-16T15:32:39;0.80;99.90
8611;DHT22;4343;53.648;10.098;2024-01-16T15:35:05;0.80;99.90
8611;DHT22;4343;53.648;10.098;2024-01-16T15:37:35;0.80;99.90
8611;DHT22;4343;53.648;10.098;2024-01-16T15:40:00;0.80;99.90
8611;DHT22;4343;53.648;10.098;2024-01-16T15:42:26;0.80;99.90
8611;DHT22;4343;53.648;10.098;2024-01-16T15:44:52;0.80;99.90
8611;DHT22;4343;53.648;10.098;2024-01-16T15:47:21;0.80;99.90
8611;DHT22;4343;53.648;10.098;2024-01-16T15:49:46;0.80;99.90
8611;DHT22;4343;53.648;10.098;2024-01-16T15:52:13;0.80;99.90
8611;DHT22;4343;53.648;10.098;2024-01-16T15:54:39;0.80;99.90
8611;DHT22;4343;53.648;10.098;2024-01-16T15:57:04;0.80;99.90
8611;DHT22;4343;53.648;10.098;2024-01-16T15:59:30;0.80;99.90